Terminal Aerodrome Forecast
Issued by NWS Sioux Falls, SD

Home | Current Version | Previous Version | Text Only | Print | Product List | Glossary Off
Versions: 1 2 3 4 5 6 7 8 9 10 11 12 13 14 15 16

000
FTUS43 KFSD 141513 AAB
TAFSUX
TAF AMD
KSUX 141513Z 1415/1512 11007KT 4SM BR OVC006
      TEMPO 1415/1417 1 1/2SM -DZ BR OVC004
     FM141700 10005KT 3SM BR OVC005
      TEMPO 1417/1421 3/4SM -DZ BR OVC003
     FM142200 29012KT P6SM VCSH OVC010
     FM150100 32023G31KT P6SM VCSH BKN030
     FM150400 33022G31KT P6SM BKN040
     FM150900 32013KT P6SM SCT140=

USA.gov is the U.S. government's official web portal to all federal, state and local government web resources and services.